sensor_id;sensor_type;location;lat;lon;timestamp;P1;durP1;ratioP1;P2;durP2;ratioP2
20320;SDS011;10318;47.674;9.052;2022-11-15T00:01:23;43.90;;;7.70;;
20320;SDS011;10318;47.674;9.052;2022-11-15T00:04:09;10.73;;;6.55;;
20320;SDS011;10318;47.674;9.052;2022-11-15T00:06:55;19.58;;;6.97;;
20320;SDS011;10318;47.674;9.052;2022-11-15T00:09:40;18.92;;;7.20;;
20320;SDS011;10318;47.674;9.052;2022-11-15T00:12:30;18.35;;;6.30;;
20320;SDS011;10318;47.674;9.052;2022-11-15T00:15:15;34.05;;;8.43;;
20320;SDS011;10318;47.674;9.052;2022-11-15T00:18:00;23.15;;;7.53;;
20320;SDS011;10318;47.674;9.052;2022-11-15T00:20:45;53.13;;;7.25;;
20320;SDS011;10318;47.674;9.052;2022-11-15T00:23:31;17.92;;;5.55;;
20320;SDS011;10318;47.674;9.052;2022-11-15T00:26:17;8.32;;;4.32;;
20320;SDS011;10318;47.674;9.052;2022-11-15T00:29:02;8.18;;;5.25;;
20320;SDS011;10318;47.674;9.052;2022-11-15T00:31:48;21.40;;;7.55;;
20320;SDS011;10318;47.674;9.052;2022-11-15T00:34:33;19.45;;;6.60;;
20320;SDS011;10318;47.674;9.052;2022-11-15T00:37:19;22.52;;;8.05;;
20320;SDS011;10318;47.674;9.052;2022-11-15T00:40:04;27.70;;;8.38;;
20320;SDS011;10318;47.674;9.052;2022-11-15T00:42:50;53.60;;;8.70;;
20320;SDS011;10318;47.674;9.052;2022-11-15T00:45:35;84.15;;;8.25;;
20320;SDS011;10318;47.674;9.052;2022-11-15T00:48:21;79.95;;;9.40;;
20320;SDS011;10318;47.674;9.052;2022-11-15T00:51:06;32.70;;;7.20;;
20320;SDS011;10318;47.674;9.052;2022-11-15T00:53:51;13.27;;;7.07;;
20320;SDS011;10318;47.674;9.052;2022-11-15T00:56:37;11.85;;;6.85;;
20320;SDS011;10318;47.674;9.052;2022-11-15T00:59:22;24.58;;;7.43;;
20320;SDS011;10318;47.674;9.052;2022-11-15T01:02:07;39.33;;;6.50;;
20320;SDS011;10318;47.674;9.052;2022-11-15T01:04:53;30.50;;;6.80;;
20320;SDS011;10318;47.674;9.052;2022-11-15T01:07:38;30.20;;;7.53;;
20320;SDS011;10318;47.674;9.052;2022-11-15T01:10:24;46.50;;;9.38;;
20320;SDS011;10318;47.674;9.052;2022-11-15T01:13:10;19.55;;;8.43;;
20320;SDS011;10318;47.674;9.052;2022-11-15T01:15:56;23.55;;;7.15;;
20320;SDS011;10318;47.674;9.052;2022-11-15T01:18:41;26.60;;;7.97;;
20320;SDS011;10318;47.674;9.052;2022-11-15T01:21:26;58.65;;;9.48;;
20320;SDS011;10318;47.674;9.052;2022-11-15T01:24:12;25.27;;;7.88;;
20320;SDS011;10318;47.674;9.052;2022-11-15T01:26:57;36.15;;;8.30;;
20320;SDS011;10318;47.674;9.052;2022-11-15T01:29:43;49.97;;;9.07;;
20320;SDS011;10318;47.674;9.052;2022-11-15T01:32:28;177.75;;;12.63;;
20320;SDS011;10318;47.674;9.052;2022-11-15T01:35:13;99.50;;;8.80;;
20320;SDS011;10318;47.674;9.052;2022-11-15T01:37:58;35.28;;;6.20;;
20320;SDS011;10318;47.674;9.052;2022-11-15T01:40:44;32.75;;;6.30;;
20320;SDS011;10318;47.674;9.052;2022-11-15T01:46:25;36.28;;;7.68;;
20320;SDS011;10318;47.674;9.052;2022-11-15T01:49:13;15.82;;;6.60;;
20320;SDS011;10318;47.674;9.052;2022-11-15T01:51:59;41.83;;;7.25;;
20320;SDS011;10318;47.674;9.052;2022-11-15T01:54:45;16.73;;;6.25;;
20320;SDS011;10318;47.674;9.052;2022-11-15T01:57:31;14.82;;;6.35;;
20320;SDS011;10318;47.674;9.052;2022-11-15T02:00:18;19.80;;;6.20;;
20320;SDS011;10318;47.674;9.052;2022-11-15T02:03:06;25.05;;;7.07;;
20320;SDS011;10318;47.674;9.052;2022-11-15T02:05:52;20.33;;;6.22;;
20320;SDS011;10318;47.674;9.052;2022-11-15T02:08:38;12.55;;;5.20;;
20320;SDS011;10318;47.674;9.052;2022-11-15T02:11:23;22.70;;;5.55;;
20320;SDS011;10318;47.674;9.052;2022-11-15T02:14:10;16.52;;;5.85;;
20320;SDS011;10318;47.674;9.052;2022-11-15T02:19:52;20.17;;;6.22;;
20320;SDS011;10318;47.674;9.052;2022-11-15T02:26:07;18.00;;;7.47;;
20320;SDS011;10318;47.674;9.052;2022-11-15T02:35:18;14.15;;;5.93;;
20320;SDS011;10318;47.674;9.052;2022-11-15T02:37:58;22.20;;;6.95;;
20320;SDS011;10318;47.674;9.052;2022-11-15T02:41:02;16.20;;;6.78;;
20320;SDS011;10318;47.674;9.052;2022-11-15T02:43:51;85.10;;;8.60;;
20320;SDS011;10318;47.674;9.052;2022-11-15T02:46:42;23.65;;;6.63;;
20320;SDS011;10318;47.674;9.052;2022-11-15T02:49:52;35.72;;;6.45;;
20320;SDS011;10318;47.674;9.052;2022-11-15T02:52:38;16.08;;;7.18;;
20320;SDS011;10318;47.674;9.052;2022-11-15T02:55:27;16.60;;;6.55;;
20320;SDS011;10318;47.674;9.052;2022-11-15T03:01:31;29.98;;;7.65;;
20320;SDS011;10318;47.674;9.052;2022-11-15T03:05:07;14.88;;;6.95;;
20320;SDS011;10318;47.674;9.052;2022-11-15T03:22:17;20.40;;;7.28;;
20320;SDS011;10318;47.674;9.052;2022-11-15T03:25:05;15.18;;;7.05;;
20320;SDS011;10318;47.674;9.052;2022-11-15T03:27:52;11.82;;;7.40;;
20320;SDS011;10318;47.674;9.052;2022-11-15T03:30:38;18.15;;;7.13;;
20320;SDS011;10318;47.674;9.052;2022-11-15T03:33:25;12.27;;;6.97;;
20320;SDS011;10318;47.674;9.052;2022-11-15T03:36:10;17.20;;;6.57;;
20320;SDS011;10318;47.674;9.052;2022-11-15T03:38:56;15.65;;;6.70;;
20320;SDS011;10318;47.674;9.052;2022-11-15T03:41:45;16.70;;;6.70;;
20320;SDS011;10318;47.674;9.052;2022-11-15T03:47:34;7.32;;;6.35;;
20320;SDS011;10318;47.674;9.052;2022-11-15T03:50:21;6.85;;;6.13;;
20320;SDS011;10318;47.674;9.052;2022-11-15T03:53:07;11.00;;;6.47;;
20320;SDS011;10318;47.674;9.052;2022-11-15T03:55:52;8.73;;;6.40;;
20320;SDS011;10318;47.674;9.052;2022-11-15T03:58:38;7.30;;;6.13;;
20320;SDS011;10318;47.674;9.052;2022-11-15T04:01:23;6.95;;;5.88;;
20320;SDS011;10318;47.674;9.052;2022-11-15T04:04:09;6.90;;;5.88;;
20320;SDS011;10318;47.674;9.052;2022-11-15T04:06:54;10.02;;;7.32;;
20320;SDS011;10318;47.674;9.052;2022-11-15T04:09:39;9.40;;;6.55;;
20320;SDS011;10318;47.674;9.052;2022-11-15T04:12:44;6.78;;;6.07;;
20320;SDS011;10318;47.674;9.052;2022-11-15T04:15:31;6.18;;;5.57;;
20320;SDS011;10318;47.674;9.052;2022-11-15T04:18:17;5.85;;;4.93;;
20320;SDS011;10318;47.674;9.052;2022-11-15T04:21:02;4.72;;;4.22;;
20320;SDS011;10318;47.674;9.052;2022-11-15T04:24:06;5.38;;;4.88;;
20320;SDS011;10318;47.674;9.052;2022-11-15T04:26:57;4.95;;;4.45;;
20320;SDS011;10318;47.674;9.052;2022-11-15T04:29:42;6.07;;;5.15;;
20320;SDS011;10318;47.674;9.052;2022-11-15T04:32:28;9.40;;;7.30;;
20320;SDS011;10318;47.674;9.052;2022-11-15T04:35:13;8.57;;;6.55;;
20320;SDS011;10318;47.674;9.052;2022-11-15T04:37:58;6.93;;;5.00;;
20320;SDS011;10318;47.674;9.052;2022-11-15T04:40:44;4.85;;;4.30;;
20320;SDS011;10318;47.674;9.052;2022-11-15T04:43:29;8.80;;;4.18;;
20320;SDS011;10318;47.674;9.052;2022-11-15T04:46:15;5.72;;;4.22;;
20320;SDS011;10318;47.674;9.052;2022-11-15T04:49:00;5.80;;;5.03;;
20320;SDS011;10318;47.674;9.052;2022-11-15T04:51:45;5.03;;;4.53;;
20320;SDS011;10318;47.674;9.052;2022-11-15T04:54:31;5.90;;;5.30;;
20320;SDS011;10318;47.674;9.052;2022-11-15T04:57:16;7.47;;;5.80;;
20320;SDS011;10318;47.674;9.052;2022-11-15T05:00:05;6.30;;;5.30;;
20320;SDS011;10318;47.674;9.052;2022-11-15T05:02:50;7.47;;;6.28;;
20320;SDS011;10318;47.674;9.052;2022-11-15T05:05:55;8.50;;;6.47;;
20320;SDS011;10318;47.674;9.052;2022-11-15T05:08:40;7.43;;;6.32;;
20320;SDS011;10318;47.674;9.052;2022-11-15T05:11:26;8.05;;;6.05;;
20320;SDS011;10318;47.674;9.052;2022-11-15T05:14:12;8.13;;;7.03;;
20320;SDS011;10318;47.674;9.052;2022-11-15T05:16:57;9.93;;;6.70;;
20320;SDS011;10318;47.674;9.052;2022-11-15T05:19:42;15.00;;;8.75;;
20320;SDS011;10318;47.674;9.052;2022-11-15T05:22:29;12.15;;;9.30;;
20320;SDS011;10318;47.674;9.052;2022-11-15T05:25:15;10.27;;;8.25;;
20320;SDS011;10318;47.674;9.052;2022-11-15T05:28:00;11.90;;;8.18;;
20320;SDS011;10318;47.674;9.052;2022-11-15T05:30:45;10.85;;;9.30;;
20320;SDS011;10318;47.674;9.052;2022-11-15T05:33:31;13.57;;;9.73;;
20320;SDS011;10318;47.674;9.052;2022-11-15T05:39:15;26.98;;;9.60;;
20320;SDS011;10318;47.674;9.052;2022-11-15T05:42:01;50.50;;;9.40;;
20320;SDS011;10318;47.674;9.052;2022-11-15T05:44:50;127.88;;;13.90;;
20320;SDS011;10318;47.674;9.052;2022-11-15T05:47:35;73.22;;;15.82;;
20320;SDS011;10318;47.674;9.052;2022-11-15T05:50:22;75.20;;;14.65;;
20320;SDS011;10318;47.674;9.052;2022-11-15T05:53:07;70.28;;;11.30;;
20320;SDS011;10318;47.674;9.052;2022-11-15T05:55:53;98.93;;;10.85;;
20320;SDS011;10318;47.674;9.052;2022-11-15T05:58:38;38.83;;;10.50;;
20320;SDS011;10318;47.674;9.052;2022-11-15T06:01:24;31.92;;;9.35;;
20320;SDS011;10318;47.674;9.052;2022-11-15T06:04:13;41.30;;;9.10;;
20320;SDS011;10318;47.674;9.052;2022-11-15T06:06:58;20.98;;;7.72;;
20320;SDS011;10318;47.674;9.052;2022-11-15T06:09:44;40.60;;;7.80;;
20320;SDS011;10318;47.674;9.052;2022-11-15T06:12:29;31.00;;;7.30;;
20320;SDS011;10318;47.674;9.052;2022-11-15T06:15:15;24.27;;;7.63;;
20320;SDS011;10318;47.674;9.052;2022-11-15T06:18:00;51.65;;;10.43;;
20320;SDS011;10318;47.674;9.052;2022-11-15T06:20:45;122.13;;;10.00;;
20320;SDS011;10318;47.674;9.052;2022-11-15T06:23:34;26.60;;;8.25;;
20320;SDS011;10318;47.674;9.052;2022-11-15T06:26:19;34.05;;;8.57;;
20320;SDS011;10318;47.674;9.052;2022-11-15T06:29:05;24.83;;;7.40;;
20320;SDS011;10318;47.674;9.052;2022-11-15T06:31:50;39.13;;;9.00;;
20320;SDS011;10318;47.674;9.052;2022-11-15T06:34:35;46.72;;;9.48;;
20320;SDS011;10318;47.674;9.052;2022-11-15T06:37:21;32.97;;;9.63;;
20320;SDS011;10318;47.674;9.052;2022-11-15T06:40:07;81.70;;;10.48;;
20320;SDS011;10318;47.674;9.052;2022-11-15T06:42:57;21.48;;;8.32;;
20320;SDS011;10318;47.674;9.052;2022-11-15T06:45:42;33.88;;;7.93;;
20320;SDS011;10318;47.674;9.052;2022-11-15T06:48:28;33.78;;;8.57;;
20320;SDS011;10318;47.674;9.052;2022-11-15T06:51:13;58.78;;;10.05;;
20320;SDS011;10318;47.674;9.052;2022-11-15T06:53:58;47.67;;;9.25;;
20320;SDS011;10318;47.674;9.052;2022-11-15T06:56:44;42.88;;;9.52;;
20320;SDS011;10318;47.674;9.052;2022-11-15T06:59:29;57.25;;;8.50;;
20320;SDS011;10318;47.674;9.052;2022-11-15T07:02:15;26.67;;;8.68;;
20320;SDS011;10318;47.674;9.052;2022-11-15T07:05:00;58.65;;;9.75;;
20320;SDS011;10318;47.674;9.052;2022-11-15T07:07:50;27.98;;;8.52;;
20320;SDS011;10318;47.674;9.052;2022-11-15T07:10:36;61.08;;;9.00;;
20320;SDS011;10318;47.674;9.052;2022-11-15T07:13:24;44.58;;;9.23;;
20320;SDS011;10318;47.674;9.052;2022-11-15T07:16:09;45.88;;;10.07;;
20320;SDS011;10318;47.674;9.052;2022-11-15T07:18:55;43.60;;;10.05;;
20320;SDS011;10318;47.674;9.052;2022-11-15T07:21:40;56.55;;;9.95;;
20320;SDS011;10318;47.674;9.052;2022-11-15T07:24:26;66.20;;;9.23;;
20320;SDS011;10318;47.674;9.052;2022-11-15T07:27:11;36.97;;;8.02;;
20320;SDS011;10318;47.674;9.052;2022-11-15T07:29:57;29.55;;;8.15;;
20320;SDS011;10318;47.674;9.052;2022-11-15T07:32:42;40.75;;;8.10;;
20320;SDS011;10318;47.674;9.052;2022-11-15T07:35:28;40.10;;;8.93;;
20320;SDS011;10318;47.674;9.052;2022-11-15T07:38:13;17.83;;;7.85;;
20320;SDS011;10318;47.674;9.052;2022-11-15T07:41:02;20.42;;;8.23;;
20320;SDS011;10318;47.674;9.052;2022-11-15T07:43:50;22.33;;;8.77;;
20320;SDS011;10318;47.674;9.052;2022-11-15T07:46:36;25.27;;;8.18;;
20320;SDS011;10318;47.674;9.052;2022-11-15T07:49:21;16.17;;;8.38;;
20320;SDS011;10318;47.674;9.052;2022-11-15T07:52:06;16.00;;;8.25;;
20320;SDS011;10318;47.674;9.052;2022-11-15T07:54:52;10.50;;;7.97;;
20320;SDS011;10318;47.674;9.052;2022-11-15T07:57:37;10.75;;;8.35;;
20320;SDS011;10318;47.674;9.052;2022-11-15T08:00:22;14.80;;;8.98;;
20320;SDS011;10318;47.674;9.052;2022-11-15T08:03:09;14.55;;;9.00;;
20320;SDS011;10318;47.674;9.052;2022-11-15T08:05:55;12.77;;;8.68;;
20320;SDS011;10318;47.674;9.052;2022-11-15T08:08:40;11.55;;;9.13;;
20320;SDS011;10318;47.674;9.052;2022-11-15T08:11:25;11.15;;;8.98;;
20320;SDS011;10318;47.674;9.052;2022-11-15T08:14:10;12.48;;;8.30;;
20320;SDS011;10318;47.674;9.052;2022-11-15T08:16:56;21.88;;;9.07;;
20320;SDS011;10318;47.674;9.052;2022-11-15T08:19:41;13.65;;;9.18;;
20320;SDS011;10318;47.674;9.052;2022-11-15T08:22:26;17.48;;;9.30;;
20320;SDS011;10318;47.674;9.052;2022-11-15T08:25:12;13.57;;;8.38;;
20320;SDS011;10318;47.674;9.052;2022-11-15T08:27:59;17.08;;;8.50;;
20320;SDS011;10318;47.674;9.052;2022-11-15T08:30:44;12.18;;;8.57;;
20320;SDS011;10318;47.674;9.052;2022-11-15T08:33:31;22.73;;;8.65;;
20320;SDS011;10318;47.674;9.052;2022-11-15T08:36:17;15.48;;;8.80;;
20320;SDS011;10318;47.674;9.052;2022-11-15T08:39:03;8.80;;;7.72;;
20320;SDS011;10318;47.674;9.052;2022-11-15T08:41:48;11.15;;;9.07;;
20320;SDS011;10318;47.674;9.052;2022-11-15T08:44:34;11.50;;;8.43;;
20320;SDS011;10318;47.674;9.052;2022-11-15T08:47:19;14.60;;;8.93;;
20320;SDS011;10318;47.674;9.052;2022-11-15T08:50:04;11.35;;;7.72;;
20320;SDS011;10318;47.674;9.052;2022-11-15T08:52:50;13.57;;;8.32;;
20320;SDS011;10318;47.674;9.052;2022-11-15T08:55:36;9.57;;;7.28;;
20320;SDS011;10318;47.674;9.052;2022-11-15T08:58:21;10.38;;;8.18;;
20320;SDS011;10318;47.674;9.052;2022-11-15T09:01:13;10.95;;;8.45;;
20320;SDS011;10318;47.674;9.052;2022-11-15T09:04:02;10.85;;;8.05;;
20320;SDS011;10318;47.674;9.052;2022-11-15T09:06:48;9.73;;;8.15;;
20320;SDS011;10318;47.674;9.052;2022-11-15T09:09:34;10.38;;;8.40;;
20320;SDS011;10318;47.674;9.052;2022-11-15T09:12:19;9.45;;;7.55;;
20320;SDS011;10318;47.674;9.052;2022-11-15T09:15:05;10.55;;;8.23;;
20320;SDS011;10318;47.674;9.052;2022-11-15T09:17:51;9.90;;;8.30;;
20320;SDS011;10318;47.674;9.052;2022-11-15T09:20:36;12.70;;;8.60;;
20320;SDS011;10318;47.674;9.052;2022-11-15T09:23:22;11.15;;;8.32;;
20320;SDS011;10318;47.674;9.052;2022-11-15T09:26:07;10.48;;;8.40;;
20320;SDS011;10318;47.674;9.052;2022-11-15T09:28:53;13.20;;;9.15;;
20320;SDS011;10318;47.674;9.052;2022-11-15T09:31:38;10.60;;;8.07;;
20320;SDS011;10318;47.674;9.052;2022-11-15T09:34:24;9.40;;;7.95;;
20320;SDS011;10318;47.674;9.052;2022-11-15T09:37:09;8.88;;;7.72;;
20320;SDS011;10318;47.674;9.052;2022-11-15T09:39:54;11.25;;;8.55;;
20320;SDS011;10318;47.674;9.052;2022-11-15T09:42:55;11.07;;;8.32;;
20320;SDS011;10318;47.674;9.052;2022-11-15T09:51:38;12.13;;;9.60;;
20320;SDS011;10318;47.674;9.052;2022-11-15T09:57:21;10.85;;;8.85;;
20320;SDS011;10318;47.674;9.052;2022-11-15T10:05:01;15.73;;;10.30;;
20320;SDS011;10318;47.674;9.052;2022-11-15T10:07:36;13.00;;;10.02;;
20320;SDS011;10318;47.674;9.052;2022-11-15T10:10:11;15.00;;;9.75;;
20320;SDS011;10318;47.674;9.052;2022-11-15T10:12:45;13.70;;;11.18;;
20320;SDS011;10318;47.674;9.052;2022-11-15T10:15:14;14.27;;;10.63;;
20320;SDS011;10318;47.674;9.052;2022-11-15T10:18:04;14.50;;;10.20;;
20320;SDS011;10318;47.674;9.052;2022-11-15T10:23:10;17.50;;;10.90;;
20320;SDS011;10318;47.674;9.052;2022-11-15T10:25:38;13.93;;;10.15;;
20320;SDS011;10318;47.674;9.052;2022-11-15T10:30:42;13.30;;;9.90;;
20320;SDS011;10318;47.674;9.052;2022-11-15T10:33:20;13.82;;;10.80;;
20320;SDS011;10318;47.674;9.052;2022-11-15T10:35:55;14.48;;;11.20;;
20320;SDS011;10318;47.674;9.052;2022-11-15T10:41:17;14.05;;;10.68;;
20320;SDS011;10318;47.674;9.052;2022-11-15T10:43:45;14.75;;;10.75;;
20320;SDS011;10318;47.674;9.052;2022-11-15T10:46:20;14.18;;;10.93;;
20320;SDS011;10318;47.674;9.052;2022-11-15T10:49:15;16.55;;;11.18;;
20320;SDS011;10318;47.674;9.052;2022-11-15T10:51:53;13.48;;;10.60;;
20320;SDS011;10318;47.674;9.052;2022-11-15T10:54:22;13.65;;;10.85;;
20320;SDS011;10318;47.674;9.052;2022-11-15T10:56:54;12.38;;;10.18;;
20320;SDS011;10318;47.674;9.052;2022-11-15T10:59:28;15.38;;;11.43;;
20320;SDS011;10318;47.674;9.052;2022-11-15T11:02:00;15.02;;;11.68;;
20320;SDS011;10318;47.674;9.052;2022-11-15T11:04:27;13.52;;;10.93;;
20320;SDS011;10318;47.674;9.052;2022-11-15T11:06:55;15.55;;;10.63;;
20320;SDS011;10318;47.674;9.052;2022-11-15T11:11:49;13.38;;;11.05;;
20320;SDS011;10318;47.674;9.052;2022-11-15T11:14:30;14.35;;;11.10;;
20320;SDS011;10318;47.674;9.052;2022-11-15T11:22:33;14.90;;;10.38;;
20320;SDS011;10318;47.674;9.052;2022-11-15T11:30:20;14.23;;;11.80;;
20320;SDS011;10318;47.674;9.052;2022-11-15T11:35:50;16.73;;;11.38;;
20320;SDS011;10318;47.674;9.052;2022-11-15T11:46:09;15.38;;;11.75;;
20320;SDS011;10318;47.674;9.052;2022-11-15T11:48:50;14.88;;;10.82;;
20320;SDS011;10318;47.674;9.052;2022-11-15T11:51:32;16.10;;;11.20;;
20320;SDS011;10318;47.674;9.052;2022-11-15T11:54:09;15.30;;;11.95;;
20320;SDS011;10318;47.674;9.052;2022-11-15T11:56:37;14.40;;;11.10;;
20320;SDS011;10318;47.674;9.052;2022-11-15T11:59:07;15.32;;;11.63;;
20320;SDS011;10318;47.674;9.052;2022-11-15T12:01:39;15.98;;;11.98;;
20320;SDS011;10318;47.674;9.052;2022-11-15T12:04:16;16.45;;;11.35;;
20320;SDS011;10318;47.674;9.052;2022-11-15T12:06:52;14.20;;;11.07;;
20320;SDS011;10318;47.674;9.052;2022-11-15T12:09:28;15.25;;;11.05;;
20320;SDS011;10318;47.674;9.052;2022-11-15T12:12:02;16.85;;;10.95;;
20320;SDS011;10318;47.674;9.052;2022-11-15T12:16:58;14.77;;;11.48;;
20320;SDS011;10318;47.674;9.052;2022-11-15T12:19:25;14.32;;;11.07;;
20320;SDS011;10318;47.674;9.052;2022-11-15T12:22:06;15.00;;;11.48;;
20320;SDS011;10318;47.674;9.052;2022-11-15T12:24:40;13.77;;;11.43;;
20320;SDS011;10318;47.674;9.052;2022-11-15T12:27:18;14.05;;;11.32;;
20320;SDS011;10318;47.674;9.052;2022-11-15T12:29:56;13.02;;;10.32;;
20320;SDS011;10318;47.674;9.052;2022-11-15T12:32:26;13.63;;;11.18;;
20320;SDS011;10318;47.674;9.052;2022-11-15T12:34:53;14.95;;;11.57;;
20320;SDS011;10318;47.674;9.052;2022-11-15T12:42:56;12.68;;;10.57;;
20320;SDS011;10318;47.674;9.052;2022-11-15T12:45:31;12.88;;;10.23;;
20320;SDS011;10318;47.674;9.052;2022-11-15T12:48:46;14.48;;;10.73;;
20320;SDS011;10318;47.674;9.052;2022-11-15T12:50:53;14.00;;;11.90;;
20320;SDS011;10318;47.674;9.052;2022-11-15T12:56:36;14.93;;;11.48;;
20320;SDS011;10318;47.674;9.052;2022-11-15T12:58:53;13.75;;;11.15;;
20320;SDS011;10318;47.674;9.052;2022-11-15T13:06:44;15.80;;;11.93;;
20320;SDS011;10318;47.674;9.052;2022-11-15T13:11:57;15.57;;;12.60;;
20320;SDS011;10318;47.674;9.052;2022-11-15T13:14:58;17.42;;;11.63;;
20320;SDS011;10318;47.674;9.052;2022-11-15T13:20:30;14.80;;;12.52;;
20320;SDS011;10318;47.674;9.052;2022-11-15T13:22:50;18.63;;;13.73;;
20320;SDS011;10318;47.674;9.052;2022-11-15T13:27:48;14.52;;;11.25;;
20320;SDS011;10318;47.674;9.052;2022-11-15T13:30:19;16.67;;;12.48;;
20320;SDS011;10318;47.674;9.052;2022-11-15T13:32:46;14.32;;;11.77;;
20320;SDS011;10318;47.674;9.052;2022-11-15T13:35:23;13.43;;;11.70;;
20320;SDS011;10318;47.674;9.052;2022-11-15T13:42:44;15.90;;;11.35;;
20320;SDS011;10318;47.674;9.052;2022-11-15T13:45:15;15.27;;;11.32;;
20320;SDS011;10318;47.674;9.052;2022-11-15T13:47:42;13.77;;;11.40;;
20320;SDS011;10318;47.674;9.052;2022-11-15T13:50:10;14.05;;;11.38;;
20320;SDS011;10318;47.674;9.052;2022-11-15T13:52:38;16.10;;;11.35;;
20320;SDS011;10318;47.674;9.052;2022-11-15T13:55:11;13.70;;;10.93;;
20320;SDS011;10318;47.674;9.052;2022-11-15T13:57:47;14.88;;;10.93;;
20320;SDS011;10318;47.674;9.052;2022-11-15T14:03:19;11.32;;;9.88;;
20320;SDS011;10318;47.674;9.052;2022-11-15T14:08:34;12.80;;;10.48;;
20320;SDS011;10318;47.674;9.052;2022-11-15T14:11:06;11.70;;;9.60;;
20320;SDS011;10318;47.674;9.052;2022-11-15T14:13:33;13.73;;;10.70;;
20320;SDS011;10318;47.674;9.052;2022-11-15T14:18:44;12.15;;;9.85;;
20320;SDS011;10318;47.674;9.052;2022-11-15T14:21:11;11.18;;;9.73;;
20320;SDS011;10318;47.674;9.052;2022-11-15T14:23:38;12.90;;;9.68;;
20320;SDS011;10318;47.674;9.052;2022-11-15T14:26:05;14.80;;;11.05;;
20320;SDS011;10318;47.674;9.052;2022-11-15T14:28:37;12.10;;;9.65;;
20320;SDS011;10318;47.674;9.052;2022-11-15T14:31:10;18.33;;;10.25;;
20320;SDS011;10318;47.674;9.052;2022-11-15T14:33:38;12.20;;;10.45;;
20320;SDS011;10318;47.674;9.052;2022-11-15T14:36:27;14.05;;;11.02;;
20320;SDS011;10318;47.674;9.052;2022-11-15T14:38:52;16.13;;;11.30;;
20320;SDS011;10318;47.674;9.052;2022-11-15T14:41:21;13.05;;;10.73;;
20320;SDS011;10318;47.674;9.052;2022-11-15T14:43:49;14.15;;;10.73;;
20320;SDS011;10318;47.674;9.052;2022-11-15T14:46:16;19.92;;;11.40;;
20320;SDS011;10318;47.674;9.052;2022-11-15T14:48:43;16.33;;;12.45;;
20320;SDS011;10318;47.674;9.052;2022-11-15T14:51:13;19.10;;;12.55;;
20320;SDS011;10318;47.674;9.052;2022-11-15T14:53:41;17.95;;;12.55;;
20320;SDS011;10318;47.674;9.052;2022-11-15T14:56:09;14.65;;;12.52;;
20320;SDS011;10318;47.674;9.052;2022-11-15T14:58:36;13.80;;;12.20;;
20320;SDS011;10318;47.674;9.052;2022-11-15T15:01:09;15.38;;;12.55;;
20320;SDS011;10318;47.674;9.052;2022-11-15T15:03:37;14.05;;;11.77;;
20320;SDS011;10318;47.674;9.052;2022-11-15T15:06:04;15.02;;;12.00;;
20320;SDS011;10318;47.674;9.052;2022-11-15T15:08:31;15.50;;;11.60;;
20320;SDS011;10318;47.674;9.052;2022-11-15T15:10:58;15.25;;;12.07;;
20320;SDS011;10318;47.674;9.052;2022-11-15T15:13:25;15.88;;;11.70;;
20320;SDS011;10318;47.674;9.052;2022-11-15T15:15:52;13.27;;;11.88;;
20320;SDS011;10318;47.674;9.052;2022-11-15T15:18:19;15.48;;;12.13;;
20320;SDS011;10318;47.674;9.052;2022-11-15T15:20:55;15.05;;;12.27;;
20320;SDS011;10318;47.674;9.052;2022-11-15T15:23:23;15.35;;;12.63;;
20320;SDS011;10318;47.674;9.052;2022-11-15T15:25:52;14.25;;;12.20;;
20320;SDS011;10318;47.674;9.052;2022-11-15T15:28:19;16.67;;;12.13;;
20320;SDS011;10318;47.674;9.052;2022-11-15T15:30:46;14.77;;;11.95;;
20320;SDS011;10318;47.674;9.052;2022-11-15T15:33:13;13.18;;;11.23;;
20320;SDS011;10318;47.674;9.052;2022-11-15T15:35:40;21.63;;;13.75;;
20320;SDS011;10318;47.674;9.052;2022-11-15T15:38:13;15.10;;;11.95;;
20320;SDS011;10318;47.674;9.052;2022-11-15T15:40:41;16.52;;;12.48;;
20320;SDS011;10318;47.674;9.052;2022-11-15T15:43:08;14.38;;;10.77;;
20320;SDS011;10318;47.674;9.052;2022-11-15T15:45:36;16.20;;;11.38;;
20320;SDS011;10318;47.674;9.052;2022-11-15T15:48:03;16.00;;;11.10;;
20320;SDS011;10318;47.674;9.052;2022-11-15T15:50:34;15.68;;;11.63;;
20320;SDS011;10318;47.674;9.052;2022-11-15T15:53:02;17.92;;;11.68;;
20320;SDS011;10318;47.674;9.052;2022-11-15T15:55:29;14.45;;;12.10;;
20320;SDS011;10318;47.674;9.052;2022-11-15T15:57:56;16.85;;;12.10;;
20320;SDS011;10318;47.674;9.052;2022-11-15T16:00:24;17.23;;;11.98;;
20320;SDS011;10318;47.674;9.052;2022-11-15T16:02:51;14.05;;;11.65;;
20320;SDS011;10318;47.674;9.052;2022-11-15T16:05:18;13.13;;;11.50;;
20320;SDS011;10318;47.674;9.052;2022-11-15T16:07:46;16.52;;;11.15;;
20320;SDS011;10318;47.674;9.052;2022-11-15T16:10:24;13.02;;;11.00;;
20320;SDS011;10318;47.674;9.052;2022-11-15T16:12:54;13.52;;;11.30;;
20320;SDS011;10318;47.674;9.052;2022-11-15T16:15:22;13.15;;;11.05;;
20320;SDS011;10318;47.674;9.052;2022-11-15T16:17:50;14.00;;;11.25;;
20320;SDS011;10318;47.674;9.052;2022-11-15T16:22:50;11.73;;;10.52;;
20320;SDS011;10318;47.674;9.052;2022-11-15T16:25:17;13.13;;;10.65;;
20320;SDS011;10318;47.674;9.052;2022-11-15T16:27:44;13.25;;;10.80;;
20320;SDS011;10318;47.674;9.052;2022-11-15T16:30:16;14.80;;;11.10;;
20320;SDS011;10318;47.674;9.052;2022-11-15T16:32:43;12.88;;;10.90;;
20320;SDS011;10318;47.674;9.052;2022-11-15T16:35:11;13.68;;;11.45;;
20320;SDS011;10318;47.674;9.052;2022-11-15T16:37:39;18.90;;;10.68;;
20320;SDS011;10318;47.674;9.052;2022-11-15T16:42:37;14.13;;;11.65;;
20320;SDS011;10318;47.674;9.052;2022-11-15T16:45:04;13.77;;;11.80;;
20320;SDS011;10318;47.674;9.052;2022-11-15T16:47:31;13.55;;;11.45;;
20320;SDS011;10318;47.674;9.052;2022-11-15T16:49:57;14.23;;;12.60;;
20320;SDS011;10318;47.674;9.052;2022-11-15T16:52:24;15.30;;;11.07;;
20320;SDS011;10318;47.674;9.052;2022-11-15T16:54:51;15.30;;;12.05;;
20320;SDS011;10318;47.674;9.052;2022-11-15T16:57:18;13.75;;;10.88;;
20320;SDS011;10318;47.674;9.052;2022-11-15T16:59:45;13.25;;;11.27;;
20320;SDS011;10318;47.674;9.052;2022-11-15T17:02:11;15.73;;;12.18;;
20320;SDS011;10318;47.674;9.052;2022-11-15T17:04:39;11.90;;;10.50;;
20320;SDS011;10318;47.674;9.052;2022-11-15T17:07:07;12.10;;;9.98;;
20320;SDS011;10318;47.674;9.052;2022-11-15T17:09:34;13.05;;;9.95;;
20320;SDS011;10318;47.674;9.052;2022-11-15T17:12:01;15.38;;;11.75;;
20320;SDS011;10318;47.674;9.052;2022-11-15T17:14:28;13.00;;;10.80;;
20320;SDS011;10318;47.674;9.052;2022-11-15T17:16:54;14.15;;;10.82;;
20320;SDS011;10318;47.674;9.052;2022-11-15T17:19:21;14.75;;;10.82;;
20320;SDS011;10318;47.674;9.052;2022-11-15T17:21:48;13.55;;;10.68;;
20320;SDS011;10318;47.674;9.052;2022-11-15T17:24:15;12.55;;;10.27;;
20320;SDS011;10318;47.674;9.052;2022-11-15T17:26:42;12.65;;;10.32;;
20320;SDS011;10318;47.674;9.052;2022-11-15T17:29:09;13.60;;;10.23;;
20320;SDS011;10318;47.674;9.052;2022-11-15T17:31:37;11.95;;;9.80;;
20320;SDS011;10318;47.674;9.052;2022-11-15T17:34:04;12.27;;;9.55;;
20320;SDS011;10318;47.674;9.052;2022-11-15T17:36:31;12.23;;;10.15;;
20320;SDS011;10318;47.674;9.052;2022-11-15T17:38:58;13.32;;;9.85;;
20320;SDS011;10318;47.674;9.052;2022-11-15T17:41:26;11.55;;;9.57;;
20320;SDS011;10318;47.674;9.052;2022-11-15T17:43:56;15.07;;;10.13;;
20320;SDS011;10318;47.674;9.052;2022-11-15T17:46:24;13.98;;;9.80;;
20320;SDS011;10318;47.674;9.052;2022-11-15T17:48:51;18.10;;;10.30;;
20320;SDS011;10318;47.674;9.052;2022-11-15T17:51:18;18.73;;;10.38;;